Time;durP1;ratioP1;P1;durP2;ratioP2;P2;SDS_P1;SDS_P2;PMS_P1;PMS_P2;Temp;Humidity;BMP_temperature;BMP_pressure;BME280_temperature;BME280_humidity;BME280_pressure;Samples;Min_cycle;Max_cycle;Signal;HPM_P1;HPM_P2
2021/05/20 00:00:33;;;;;;;3.53;3.20;;;8.60;99.90;;;9.22;90.80;98251.25;5199444;28;20309;-63
2021/05/20 00:03:07;;;;;;;3.23;3.00;;;8.60;99.90;;;9.23;91.09;98247.91;5181563;28;20221;-64
2021/05/20 00:05:40;;;;;;;3.60;3.28;;;8.60;99.90;;;9.20;91.01;98250.25;5184999;28;20293;-64
2021/05/20 00:08:12;;;;;;;3.60;3.30;;;8.60;99.90;;;9.17;91.18;98252.59;5190718;28;20256;-65
2021/05/20 00:10:46;;;;;;;3.93;2.93;;;8.50;99.90;;;9.17;91.16;98245.81;5188743;28;20289;-64
2021/05/20 00:13:18;;;;;;;3.47;3.27;;;8.50;99.90;;;9.15;90.81;98246.50;5186823;28;20309;-64
2021/05/20 00:15:51;;;;;;;3.40;3.20;;;8.50;99.90;;;9.16;91.04;98250.84;5184631;28;20662;-64
2021/05/20 00:18:24;;;;;;;3.80;3.50;;;8.50;99.90;;;9.11;91.69;98247.94;5195755;28;20584;-63
2021/05/20 00:20:57;;;;;;;3.77;3.47;;;8.50;99.90;;;9.04;91.24;98250.84;5198891;28;20234;-64
2021/05/20 00:23:30;;;;;;;3.50;3.30;;;8.50;99.90;;;8.99;91.98;98249.66;5183113;28;20305;-63
2021/05/20 00:26:03;;;;;;;2.93;2.73;;;8.40;99.90;;;8.96;92.16;98263.09;5184154;28;20237;-63
2021/05/20 00:28:35;;;;;;;3.27;2.97;;;8.30;99.90;;;8.89;91.65;98255.78;5184963;28;20204;-65
2021/05/20 00:31:08;;;;;;;3.40;3.20;;;8.30;99.90;;;8.92;92.42;98255.97;5186916;28;20289;-65
2021/05/20 00:33:41;;;;;;;3.67;3.47;;;8.30;99.90;;;8.93;92.37;98259.44;5186168;28;20741;-66
2021/05/20 00:36:14;;;;;;;3.53;3.20;;;8.30;99.90;;;8.93;92.34;98262.88;5186899;28;20297;-64
2021/05/20 00:38:46;;;;;;;3.97;3.67;;;8.30;99.90;;;8.96;92.45;98268.19;5185482;28;20649;-63
2021/05/20 00:41:21;;;;;;;3.37;3.03;;;8.30;99.90;;;8.95;92.58;98265.50;5183149;28;20297;-64
2021/05/20 00:43:53;;;;;;;3.33;3.10;;;8.30;99.90;;;8.95;92.54;98270.59;5196742;28;20253;-64
2021/05/20 00:46:26;;;;;;;3.10;2.90;;;8.30;99.90;;;8.92;92.76;98263.63;5194521;28;20205;-64
2021/05/20 00:48:59;;;;;;;3.40;3.10;;;8.30;99.90;;;8.94;92.34;98264.63;5184519;28;20663;-65
2021/05/20 00:51:32;;;;;;;3.70;3.10;;;8.20;99.90;;;8.90;91.93;98267.75;5192945;28;20309;-64
2021/05/20 00:54:05;;;;;;;2.97;2.80;;;8.20;99.90;;;8.81;91.19;98267.09;5189343;28;20645;-64
2021/05/20 00:56:40;;;;;;;2.60;2.50;;;8.10;99.90;;;8.75;91.11;98270.09;5201716;28;20197;-64
2021/05/20 00:59:13;;;;;;;3.43;3.10;;;8.00;99.90;;;8.70;90.54;98279.09;5195531;28;20229;-63
2021/05/20 01:01:45;;;;;;;2.87;2.77;;;8.00;99.90;;;8.62;91.29;98264.03;5187698;28;20201;-64
2021/05/20 01:04:19;;;;;;;2.90;2.70;;;8.00;99.90;;;8.65;91.84;98269.34;5187554;28;20329;-64
2021/05/20 01:06:51;;;;;;;2.83;2.63;;;8.00;99.90;;;8.66;91.83;98272.00;5195622;28;20285;-64
2021/05/20 01:09:24;;;;;;;2.80;2.60;;;8.00;99.90;;;8.68;91.90;98267.91;5189279;28;20233;-64
2021/05/20 01:11:56;;;;;;;2.80;2.60;;;8.00;99.90;;;8.68;92.25;98267.03;5186813;28;20219;-64
2021/05/20 01:14:29;;;;;;;3.57;3.27;;;8.00;99.90;;;8.72;92.46;98276.63;5188031;28;20222;-65
2021/05/20 01:17:01;;;;;;;2.80;2.60;;;8.10;99.90;;;8.70;92.99;98268.00;5183922;28;20282;-64
2021/05/20 01:19:36;;;;;;;3.13;2.90;;;8.10;99.90;;;8.75;93.04;98276.84;5201652;28;20208;-64
2021/05/20 01:22:10;;;;;;;2.93;2.70;;;8.10;99.90;;;8.71;93.37;98273.22;5194351;28;20233;-64
2021/05/20 01:24:44;;;;;;;3.23;3.10;;;8.10;99.90;;;8.72;92.73;98272.41;5193930;28;20260;-63
2021/05/20 01:27:16;;;;;;;2.87;2.67;;;8.10;99.90;;;8.76;92.76;98263.34;5181543;28;20209;-64
2021/05/20 01:29:49;;;;;;;3.00;2.90;;;8.10;99.90;;;8.75;92.71;98277.72;5191952;28;20297;-64
2021/05/20 01:32:21;;;;;;;5.20;3.20;;;8.10;99.90;;;8.74;92.55;98277.66;5202775;28;20280;-64
2021/05/20 01:34:58;;;;;;;3.10;2.90;;;8.00;99.90;;;8.76;92.73;98276.09;5190055;28;20226;-64
2021/05/20 01:37:32;;;;;;;3.10;3.00;;;8.10;99.90;;;8.76;92.89;98274.44;5201530;28;20198;-64
2021/05/20 01:40:06;;;;;;;3.00;2.80;;;8.10;99.90;;;8.80;92.45;98272.97;5191223;28;20284;-64
2021/05/20 01:42:39;;;;;;;3.10;2.90;;;8.10;99.90;;;8.83;92.42;98275.75;5192907;28;20735;-64
2021/05/20 01:45:12;;;;;;;3.10;2.80;;;8.20;99.90;;;8.83;92.20;98278.28;5187905;28;20285;-64
2021/05/20 01:47:44;;;;;;;3.10;2.77;;;8.20;99.90;;;8.83;91.95;98278.28;5199380;28;20205;-64
2021/05/20 01:50:17;;;;;;;3.10;2.90;;;8.20;99.90;;;8.85;91.96;98268.22;5200956;28;20243;-64
2021/05/20 01:52:50;;;;;;;2.97;2.87;;;8.20;99.90;;;8.91;92.15;98273.75;5185071;28;20257;-64
2021/05/20 01:55:23;;;;;;;3.43;3.13;;;8.30;99.90;;;8.92;91.94;98275.50;5186746;28;20737;-63
2021/05/20 01:57:55;;;;;;;3.00;2.80;;;8.30;99.90;;;8.96;92.12;98272.41;5187827;28;20634;-64
2021/05/20 02:00:28;;;;;;;3.23;3.03;;;8.30;99.90;;;9.03;92.35;98275.47;5187935;28;20245;-64
2021/05/20 02:03:01;;;;;;;3.23;3.03;;;8.40;99.90;;;9.10;91.52;98279.34;5190025;28;20298;-64
2021/05/20 02:05:33;;;;;;;3.07;2.87;;;8.30;99.90;;;9.11;91.04;98278.56;5188173;28;20209;-64
2021/05/20 02:08:07;;;;;;;2.93;2.83;;;8.30;99.90;;;9.04;90.89;98271.25;5201296;28;20295;-64
2021/05/20 02:10:39;;;;;;;2.63;2.53;;;8.20;99.90;;;9.01;91.57;98271.94;5197569;28;20283;-64
2021/05/20 02:13:12;;;;;;;3.13;2.90;;;8.30;99.90;;;8.91;91.50;98278.84;5187699;28;20226;-65
2021/05/20 02:15:44;;;;;;;3.60;3.30;;;8.20;99.90;;;8.83;91.42;98280.84;5206731;28;20297;-64
2021/05/20 02:18:17;;;;;;;3.20;3.00;;;8.10;99.90;;;8.80;90.98;98275.53;5194881;28;20624;-63
2021/05/20 02:20:50;;;;;;;3.60;3.30;;;8.00;99.90;;;8.75;90.68;98277.72;5178896;28;20293;-62
2021/05/20 02:23:24;;;;;;;3.07;2.97;;;8.00;99.90;;;8.72;90.82;98281.72;5194038;28;20756;-63
2021/05/20 02:25:57;;;;;;;3.50;3.20;;;8.00;99.90;;;8.71;91.11;98290.16;5187030;28;20221;-62
2021/05/20 02:28:30;;;;;;;3.43;3.13;;;8.00;99.90;;;8.75;91.94;98281.94;5186056;28;20294;-62
2021/05/20 02:31:02;;;;;;;3.97;3.00;;;8.10;99.90;;;8.79;91.57;98289.94;5192553;28;20197;-63
2021/05/20 02:33:35;;;;;;;3.30;3.10;;;8.10;99.90;;;8.84;91.91;98287.69;5193295;28;20310;-63
2021/05/20 02:36:08;;;;;;;3.23;2.93;;;8.20;99.90;;;8.82;91.98;98286.72;5190657;28;20670;-62
2021/05/20 02:38:41;;;;;;;3.07;2.97;;;8.20;99.90;;;8.76;91.88;98283.75;5187997;28;20293;-64
2021/05/20 02:41:14;;;;;;;2.80;2.60;;;8.00;99.90;;;8.76;91.77;98288.84;5191471;28;20584;-63
2021/05/20 02:43:46;;;;;;;2.97;2.77;;;8.00;99.90;;;8.78;91.90;98292.34;5212341;22;20256;-63
2021/05/20 02:46:19;;;;;;;3.20;3.00;;;8.10;99.90;;;8.82;91.96;98294.38;5208339;28;20752;-63
2021/05/20 02:48:51;;;;;;;3.30;3.10;;;8.10;99.90;;;8.82;91.66;98286.72;5197862;28;20218;-63
2021/05/20 02:51:24;;;;;;;2.93;2.83;;;8.10;99.90;;;8.79;91.83;98289.06;5193104;28;20284;-63
2021/05/20 02:53:57;;;;;;;3.40;3.10;;;8.00;99.90;;;8.78;91.81;98287.25;5193256;28;20224;-64
2021/05/20 02:56:30;;;;;;;3.10;3.00;;;8.00;99.90;;;8.81;91.73;98292.56;5185087;28;20206;-64
2021/05/20 02:59:02;;;;;;;2.93;2.73;;;8.00;99.90;;;8.75;91.72;98297.25;5185006;28;20289;-63
2021/05/20 03:01:40;;;;;;;2.77;2.57;;;8.00;99.90;;;8.69;91.95;98297.69;5183783;28;20225;-64
2021/05/20 03:04:13;;;;;;;3.17;2.97;;;7.90;99.90;;;8.65;91.82;98290.63;5173669;28;20225;-64
2021/05/20 03:06:46;;;;;;;3.17;2.90;;;7.90;99.90;;;8.63;91.70;98299.81;5171088;28;20298;-64
2021/05/20 03:09:20;;;;;;;2.90;2.70;;;7.80;99.90;;;8.64;91.13;98286.31;5183936;28;20285;-64
2021/05/20 03:11:56;;;;;;;3.30;3.20;;;7.80;99.90;;;8.60;91.67;98294.50;5183497;28;20237;-63
2021/05/20 03:14:29;;;;;;;2.80;2.60;;;7.80;99.90;;;8.56;91.38;98295.94;5179379;28;20228;-64
2021/05/20 03:17:11;;;;;;;3.03;2.70;;;7.80;99.90;;;8.49;91.87;98296.25;5180079;28;20199;-64
2021/05/20 03:19:44;;;;;;;3.30;3.00;;;7.70;99.90;;;8.49;92.13;98290.28;5176770;28;20581;-63
2021/05/20 03:22:16;;;;;;;2.83;2.63;;;7.70;99.90;;;8.51;92.69;98292.16;5185026;28;20237;-64
2021/05/20 03:24:50;;;;;;;2.97;2.83;;;7.80;99.90;;;8.56;92.23;98295.94;5183724;28;20210;-64
2021/05/20 03:27:23;;;;;;;3.13;3.03;;;7.80;99.90;;;8.60;92.16;98299.59;5184767;28;20297;-64
2021/05/20 03:29:55;;;;;;;2.90;2.80;;;7.80;99.90;;;8.59;92.41;98304.59;5183986;28;20650;-63
2021/05/20 03:32:30;;;;;;;3.13;2.90;;;7.90;99.90;;;8.64;92.58;98305.78;5184750;28;20257;-64
2021/05/20 03:35:03;;;;;;;2.90;2.70;;;7.90;99.90;;;8.69;92.41;98304.44;5184406;28;20296;-63
2021/05/20 03:37:37;;;;;;;3.10;3.00;;;7.90;99.90;;;8.75;92.27;98304.88;5185110;28;20621;-64
2021/05/20 03:40:11;;;;;;;3.07;2.87;;;8.00;99.90;;;8.77;91.35;98304.22;5183815;28;20200;-63
2021/05/20 03:42:43;;;;;;;2.80;2.70;;;7.90;99.90;;;8.75;91.23;98320.19;5180122;28;20235;-64
2021/05/20 03:45:16;;;;;;;2.63;2.50;;;8.00;99.90;;;8.77;90.99;98316.97;5183712;28;20230;-64
2021/05/20 03:47:48;;;;;;;2.53;2.43;;;7.90;99.90;;;8.76;91.11;98315.22;5184713;28;20642;-64
2021/05/20 03:50:22;;;;;;;3.70;3.50;;;7.90;99.90;;;8.71;91.13;98319.09;5184209;28;20269;-64
2021/05/20 03:52:54;;;;;;;3.30;3.10;;;7.90;99.90;;;8.74;91.69;98326.06;5176665;28;20306;-63
2021/05/20 03:55:27;;;;;;;3.40;3.20;;;8.00;99.90;;;8.76;91.53;98327.94;5183544;28;20191;-64
2021/05/20 03:58:00;;;;;;;3.33;3.03;;;8.00;99.90;;;8.79;91.26;98320.53;5184372;28;20272;-63
2021/05/20 04:00:32;;;;;;;3.30;3.10;;;8.00;99.90;;;8.83;91.51;98321.63;5183458;28;20313;-63
2021/05/20 04:03:05;;;;;;;3.27;3.03;;;8.10;99.90;;;8.84;91.56;98319.94;5184660;28;20215;-63
2021/05/20 04:05:37;;;;;;;3.37;3.17;;;8.10;99.90;;;8.90;91.31;98312.72;5182102;28;20197;-64
2021/05/20 04:08:10;;;;;;;3.70;3.40;;;8.10;99.90;;;8.92;91.01;98311.19;5183469;28;20296;-64
2021/05/20 04:10:43;;;;;;;3.70;3.50;;;8.10;99.90;;;8.97;90.84;98313.28;5181763;28;20203;-64
2021/05/20 04:13:28;;;;;;;4.57;4.17;;;8.20;99.90;;;8.97;90.63;98314.94;5183790;28;20222;-64
2021/05/20 04:16:01;;;;;;;4.30;4.00;;;8.20;99.90;;;9.00;90.80;98320.25;5180484;28;20238;-64
2021/05/20 04:18:35;;;;;;;4.13;3.83;;;8.20;99.90;;;9.09;89.84;98320.03;5169827;28;20197;-63
2021/05/20 04:21:07;;;;;;;3.30;3.10;;;8.20;99.90;;;9.08;89.93;98323.38;5183960;28;20194;-64
2021/05/20 04:23:43;;;;;;;3.53;3.27;;;8.20;99.90;;;9.11;90.37;98332.09;5184171;28;20215;-63
2021/05/20 04:26:19;;;;;;;3.67;3.47;;;8.30;99.90;;;9.12;91.11;98330.44;5182828;28;20201;-64
2021/05/20 04:28:51;;;;;;;4.00;3.70;;;8.40;99.90;;;9.20;90.90;98334.41;5183853;28;20289;-63
2021/05/20 04:31:24;;;;;;;3.73;3.40;;;8.50;99.90;;;9.31;90.43;98337.72;5177647;28;20199;-64
2021/05/20 04:33:56;;;;;;;3.50;3.30;;;8.50;99.90;;;9.38;89.66;98338.22;5187692;28;20218;-64
2021/05/20 04:36:29;;;;;;;3.25;3.10;;;8.60;99.90;;;9.51;89.14;98336.53;5188242;28;20203;-64
2021/05/20 04:39:01;;;;;;;3.17;2.97;;;8.70;99.90;;;9.57;88.99;98332.72;5182491;28;20812;-63
2021/05/20 04:41:35;;;;;;;3.53;3.30;;;8.70;99.90;;;9.56;88.34;98336.06;5186887;28;20293;-64
2021/05/20 04:44:08;;;;;;;3.13;2.93;;;8.70;99.90;;;9.60;88.59;98337.16;5186420;28;20223;-65
2021/05/20 04:46:40;;;;;;;3.47;3.20;;;8.70;99.90;;;9.61;88.00;98332.16;5183501;28;20198;-63
2021/05/20 04:49:13;;;;;;;3.28;3.03;;;8.70;99.90;;;9.68;87.70;98330.91;5187815;28;20577;-64
2021/05/20 04:51:45;;;;;;;4.35;3.95;;;8.80;99.90;;;9.77;87.72;98341.75;5187301;28;20261;-63
2021/05/20 04:54:18;;;;;;;6.03;4.07;;;8.80;99.90;;;9.89;86.69;98337.47;5185507;28;20309;-63
2021/05/20 04:56:51;;;;;;;3.72;3.50;;;9.00;99.90;;;10.11;87.05;98346.56;5186259;28;20272;-64
2021/05/20 04:59:24;;;;;;;4.22;3.70;;;9.20;99.90;;;10.39;87.33;98354.44;5187109;28;20285;-64
2021/05/20 05:01:56;;;;;;;3.63;3.33;;;9.50;99.90;;;10.66;85.00;98352.78;5187003;28;20205;-64
2021/05/20 05:04:29;;;;;;;3.90;3.60;;;9.70;99.90;;;10.86;83.46;98348.94;5186738;28;20265;-62
2021/05/20 05:07:01;;;;;;;3.47;3.17;;;9.80;99.90;;;10.96;83.14;98353.84;5187724;28;20293;-64
2021/05/20 05:10:40;;;;;;;4.03;3.65;;;10.00;99.90;;;11.18;80.58;98356.06;5187007;28;20202;-63
2021/05/20 05:13:13;;;;;;;3.30;3.00;;;10.10;99.90;;;11.31;80.11;98356.84;5181597;28;20255;-64
2021/05/20 05:15:46;;;;;;;3.15;2.95;;;10.30;99.90;;;11.79;78.68;98358.06;5173233;28;20229;-64
2021/05/20 05:18:18;;;;;;;2.75;2.63;;;10.80;99.90;;;12.63;74.51;98366.50;5187013;28;20230;-63
2021/05/20 05:20:51;;;;;;;2.38;2.28;;;11.50;99.90;;;12.78;70.29;98366.47;5184942;28;20201;-62
2021/05/20 05:23:23;;;;;;;2.53;2.25;;;11.70;99.90;;;12.72;69.99;98371.25;5186279;28;20595;-63
2021/05/20 05:25:56;;;;;;;2.20;2.10;;;11.70;99.90;;;12.63;70.79;98373.31;5187262;28;20232;-64
2021/05/20 05:28:29;;;;;;;2.72;2.20;;;11.60;99.90;;;12.73;70.52;98379.84;5186514;28;20199;-64
2021/05/20 05:31:02;;;;;;;2.28;2.08;;;11.60;99.90;;;12.70;70.85;98384.78;5186696;28;20677;-64
2021/05/20 05:33:34;;;;;;;2.00;1.88;;;11.50;99.90;;;12.56;70.50;98384.00;5186961;28;20227;-64
2021/05/20 05:36:07;;;;;;;2.25;2.00;;;11.50;99.90;;;12.57;70.29;98389.22;5186355;28;20706;-64
2021/05/20 05:38:40;;;;;;;2.40;2.20;;;11.40;99.90;;;12.49;70.80;98387.03;5178642;28;20249;-64
2021/05/20 05:41:13;;;;;;;2.40;2.20;;;11.40;99.90;;;12.55;69.97;98389.94;5176845;28;20235;-62
2021/05/20 05:43:46;;;;;;;2.20;2.00;;;11.40;99.90;;;12.54;70.05;98401.88;5183425;28;20254;-64
2021/05/20 05:46:19;;;;;;;2.10;1.98;;;11.40;99.90;;;12.95;70.55;98397.34;5182495;28;20199;-64
2021/05/20 05:48:52;;;;;;;2.10;2.00;;;11.60;99.90;;;13.46;68.36;98395.94;5184782;28;20195;-65
2021/05/20 05:51:28;;;;;;;2.40;2.30;;;12.10;99.90;;;13.95;65.67;98399.41;5175682;28;20245;-64
2021/05/20 05:54:00;;;;;;;2.35;1.98;;;12.50;99.90;;;14.34;63.62;98394.59;5166717;28;20254;-64
2021/05/20 05:56:33;;;;;;;2.13;1.98;;;12.70;99.90;;;14.20;64.98;98395.56;5166555;28;20294;-64
2021/05/20 05:59:20;;;;;;;1.85;1.77;;;12.70;99.90;;;14.16;65.07;98401.34;5166680;28;20314;-64
2021/05/20 06:01:53;;;;;;;2.00;1.90;;;12.60;99.90;;;14.00;64.95;98401.38;5183050;28;20226;-64
2021/05/20 06:04:26;;;;;;;2.20;2.10;;;12.30;99.90;;;13.80;65.18;98398.63;5186204;28;20668;-64
2021/05/20 06:07:00;;;;;;;1.90;1.80;;;12.30;99.90;;;13.68;65.96;98403.13;5186634;28;20237;-65
2021/05/20 06:09:33;;;;;;;1.90;1.80;;;12.20;99.90;;;13.69;66.22;98399.72;5186661;28;20213;-64
2021/05/20 06:12:06;;;;;;;2.15;2.03;;;12.00;99.90;;;13.69;65.85;98412.56;5186067;28;20209;-64
2021/05/20 06:14:40;;;;;;;2.10;2.00;;;12.20;99.90;;;13.39;66.55;98405.00;5192396;28;20257;-64
2021/05/20 06:17:12;;;;;;;1.95;1.85;;;12.00;99.90;;;13.09;67.88;98411.84;5194132;28;20229;-63
2021/05/20 06:19:45;;;;;;;2.30;1.90;;;11.70;99.90;;;12.94;68.51;98417.00;5169522;28;20211;-64
2021/05/20 06:22:18;;;;;;;2.03;1.92;;;11.60;99.90;;;12.87;68.41;98412.28;5167401;28;20745;-63
2021/05/20 06:24:50;;;;;;;2.25;2.15;;;11.60;99.90;;;12.75;69.21;98415.03;5177638;28;20229;-63
2021/05/20 06:27:26;;;;;;;2.47;2.38;;;11.40;99.90;;;12.70;68.57;98413.88;5185952;28;20653;-63
2021/05/20 06:30:00;;;;;;;2.20;2.10;;;11.30;99.90;;;12.62;69.82;98423.72;5184886;28;20649;-64
2021/05/20 06:32:32;;;;;;;2.50;2.40;;;11.30;99.90;;;12.48;70.44;98423.72;5184017;28;20202;-64
2021/05/20 06:35:06;;;;;;;2.45;2.35;;;11.30;99.90;;;12.45;71.03;98432.13;5185559;28;20306;-64
2021/05/20 06:37:39;;;;;;;2.10;2.00;;;11.30;99.90;;;12.56;70.57;98425.03;5179721;28;20282;-64
2021/05/20 06:40:13;;;;;;;2.72;2.53;;;11.30;99.90;;;12.59;71.39;98430.34;5181504;28;20291;-65
2021/05/20 06:42:46;;;;;;;2.47;2.28;;;11.40;99.90;;;12.80;69.71;98428.16;5185419;28;20241;-65
2021/05/20 06:45:19;;;;;;;2.40;2.30;;;11.50;99.90;;;13.02;69.80;98432.78;5186028;28;20252;-64
2021/05/20 06:47:53;;;;;;;2.63;2.42;;;11.80;99.90;;;13.41;68.51;98434.19;5185877;28;20281;-64
2021/05/20 06:50:25;;;;;;;2.50;2.10;;;12.20;99.90;;;13.88;66.35;98424.72;5184845;28;21032;-64
2021/05/20 06:52:58;;;;;;;2.10;2.00;;;12.50;99.90;;;13.93;65.85;98425.84;5180555;28;20614;-64
2021/05/20 06:55:31;;;;;;;2.00;1.90;;;12.60;99.90;;;13.78;66.03;98427.59;5184926;28;20600;-63
2021/05/20 07:00:56;;;;;;;2.00;1.80;;;12.50;99.90;;;13.65;65.66;98432.09;5175985;28;20226;-64
2021/05/20 07:03:44;;;;;;;2.00;1.90;;;12.30;99.90;;;13.54;67.35;98430.63;5181860;28;20706;-65
2021/05/20 07:06:18;;;;;;;2.22;2.13;;;12.30;99.90;;;13.50;67.98;98444.94;5180658;28;20290;-63
2021/05/20 07:08:50;;;;;;;2.20;2.10;;;12.30;99.90;;;13.46;67.47;98442.16;5181401;28;20222;-64
2021/05/20 07:11:23;;;;;;;2.30;2.20;;;12.20;99.90;;;13.36;67.75;98450.13;5184655;28;20230;-64
2021/05/20 07:13:55;;;;;;;5.10;2.60;;;12.20;99.90;;;13.47;67.05;98444.78;5189430;28;20249;-64
2021/05/20 07:16:29;;;;;;;2.17;2.05;;;12.30;99.90;;;13.72;66.18;98446.13;5196708;28;20285;-64
2021/05/20 07:19:02;;;;;;;2.13;2.03;;;12.40;99.90;;;13.78;65.87;98446.47;5185497;28;20291;-65
2021/05/20 07:21:35;;;;;;;2.83;2.28;;;12.50;99.90;;;14.01;64.70;98446.81;5177460;28;20644;-64
2021/05/20 07:24:08;;;;;;;2.13;2.03;;;12.90;99.90;;;14.20;64.28;98436.69;5166531;28;20230;-64
2021/05/20 07:26:41;;;;;;;1.90;1.80;;;13.10;99.90;;;14.64;65.38;98436.41;5165129;28;20632;-64
2021/05/20 07:29:14;;;;;;;2.15;2.00;;;13.40;99.90;;;14.91;61.93;98441.19;5164920;28;20294;-64
2021/05/20 07:31:48;;;;;;;2.38;2.20;;;13.50;99.90;;;15.28;60.50;98432.66;5175597;28;20233;-65
2021/05/20 07:34:20;;;;;;;2.10;1.90;;;13.80;99.90;;;16.20;57.32;98439.53;5184110;28;20262;-63
2021/05/20 07:36:53;;;;;;;2.30;2.20;;;14.50;99.90;;;16.84;55.66;98438.84;5185187;28;20242;-65
2021/05/20 07:39:25;;;;;;;2.08;1.92;;;15.10;99.90;;;17.94;52.17;98435.50;5185177;28;20297;-65
2021/05/20 07:41:58;;;;;;;4.00;2.60;;;16.20;99.90;;;18.53;50.58;98435.00;5184805;28;20627;-64
2021/05/20 07:44:31;;;;;;;2.03;1.90;;;16.60;99.90;;;18.56;49.40;98437.69;5197809;28;20215;-64
2021/05/20 07:47:05;;;;;;;1.88;1.77;;;16.60;99.90;;;18.99;48.43;98441.78;5182172;28;20285;-64
2021/05/20 07:49:38;;;;;;;1.98;1.77;;;16.90;99.90;;;18.55;49.18;98433.34;5184310;28;20287;-64
2021/05/20 07:52:10;;;;;;;1.80;1.70;;;16.40;99.90;;;17.76;50.79;98429.56;5185667;28;20230;-65
2021/05/20 07:54:43;;;;;;;2.10;1.90;;;15.60;99.90;;;17.84;51.80;98433.38;5184786;28;20443;-64
2021/05/20 07:57:16;;;;;;;1.90;1.77;;;15.80;99.90;;;18.78;51.30;98427.28;5184904;28;20726;-64
2021/05/20 07:59:50;;;;;;;1.73;1.63;;;16.50;99.90;;;19.57;47.69;98425.47;5193728;28;20206;-64
2021/05/20 08:02:33;;;;;;;1.80;1.70;;;17.10;99.90;;;20.88;43.24;98422.28;5200810;28;20885;-64
2021/05/20 08:05:10;;;;;;;1.70;1.60;;;18.10;99.30;;;21.30;42.14;98418.97;5187159;28;20210;-64
2021/05/20 08:07:49;;;;;;;1.77;1.67;;;18.80;97.70;;;21.30;42.34;98416.38;5188385;28;20293;-64
2021/05/20 08:10:40;;;;;;;1.55;1.45;;;18.90;96.90;;;20.63;41.73;98419.06;5188533;28;20297;-64
2021/05/20 08:13:13;;;;;;;1.20;1.20;;;18.10;96.90;;;19.74;44.48;98411.34;5188773;28;20305;-65
2021/05/20 08:15:45;;;;;;;1.58;1.50;;;17.70;97.90;;;19.37;44.98;98417.06;5188219;28;20679;-64
2021/05/20 08:18:19;;;;;;;1.60;1.50;;;17.10;98.30;;;19.46;45.50;98408.69;5188597;28;20297;-64
2021/05/20 08:20:52;;;;;;;1.83;1.73;;;17.40;98.60;;;19.49;46.44;98408.81;5188547;28;20725;-64
2021/05/20 08:23:25;;;;;;;1.60;1.50;;;17.60;98.50;;;19.32;45.81;98409.19;5177155;28;20219;-65
2021/05/20 08:25:57;;;;;;;1.63;1.52;;;17.30;98.10;;;18.55;46.62;98413.50;5188388;28;20289;-65
2021/05/20 08:28:30;;;;;;;1.70;1.60;;;16.70;98.70;;;18.06;48.38;98419.53;5169672;28;20203;-64
2021/05/20 08:31:03;;;;;;;2.10;2.00;;;16.10;99.90;;;17.64;49.57;98422.25;5169321;28;20298;-64
2021/05/20 08:33:36;;;;;;;1.75;1.65;;;15.70;99.90;;;17.14;50.77;98410.81;5186594;28;20306;-64
2021/05/20 08:36:09;;;;;;;2.05;1.90;;;15.30;99.90;;;16.97;51.34;98424.72;5204518;28;20614;-64
2021/05/20 08:38:42;;;;;;;2.00;1.90;;;15.10;99.90;;;16.76;53.75;98430.78;5176385;28;20644;-64
2021/05/20 08:41:19;;;;;;;1.75;1.65;;;15.00;99.90;;;16.44;58.00;98431.97;5184456;28;20285;-64
2021/05/20 08:43:52;;;;;;;1.80;1.70;;;14.80;99.90;;;16.09;59.17;98428.72;5193390;22;20224;-61
2021/05/20 08:46:26;;;;;;;2.20;2.00;;;14.60;99.90;;;15.80;59.84;98427.41;5191516;28;20647;-62
2021/05/20 08:49:00;;;;;;;2.55;2.20;;;14.40;99.90;;;15.63;60.66;98428.31;5188347;28;20665;-63
2021/05/20 08:51:34;;;;;;;2.20;2.10;;;14.30;99.90;;;15.73;60.82;98423.66;5186271;28;20283;-63
2021/05/20 08:54:07;;;;;;;2.15;2.05;;;14.30;99.90;;;15.73;60.06;98426.22;5186744;28;20250;-63
2021/05/20 08:56:43;;;;;;;2.13;2.00;;;14.30;99.90;;;15.85;59.41;98422.44;5186068;28;20302;-63
2021/05/20 08:59:16;;;;;;;2.50;2.13;;;14.30;99.90;;;15.69;58.61;98419.19;5188143;28;20252;-63
2021/05/20 09:01:51;;;;;;;2.00;1.90;;;14.30;99.90;;;15.75;58.88;98422.03;5187594;28;20207;-63
2021/05/20 09:04:26;;;;;;;1.95;1.85;;;14.30;99.90;;;15.88;58.28;98427.75;5187590;28;20506;-63
2021/05/20 09:07:02;;;;;;;2.10;2.00;;;14.50;99.90;;;16.03;57.92;98423.28;5187278;28;20225;-63
2021/05/20 09:09:37;;;;;;;3.42;2.30;;;14.60;99.90;;;16.31;57.32;98419.34;5186977;28;20244;-64
2021/05/20 09:12:11;;;;;;;2.33;2.13;;;15.00;99.90;;;16.90;55.31;98418.44;5187051;28;20740;-61
2021/05/20 09:14:43;;;;;;;2.28;2.10;;;15.90;99.90;;;17.47;54.87;98412.97;5186071;28;20301;-63
2021/05/20 09:17:18;;;;;;;2.40;2.30;;;16.60;99.90;;;17.40;51.96;98417.00;5186609;28;20230;-63
2021/05/20 09:19:55;;;;;;;1.90;1.80;;;16.80;99.90;;;17.45;52.06;98423.22;5187606;28;20377;-62
2021/05/20 09:22:29;;;;;;;1.88;1.77;;;16.30;99.90;;;17.40;52.19;98417.00;5179870;28;20225;-64
2021/05/20 09:25:02;;;;;;;1.63;1.58;;;16.00;99.90;;;17.12;52.97;98425.38;5186975;28;20281;-64
2021/05/20 09:27:37;;;;;;;2.40;1.70;;;15.60;99.90;;;16.94;53.31;98429.75;5185977;28;20293;-62
2021/05/20 09:30:17;;;;;;;2.42;1.80;;;15.30;99.90;;;16.55;54.08;98435.88;5175629;28;20285;-63
2021/05/20 09:32:53;;;;;;;1.85;1.75;;;14.80;99.90;;;16.22;56.33;98440.44;5179351;28;20222;-63
2021/05/20 09:35:28;;;;;;;1.90;1.80;;;14.60;99.90;;;15.88;56.68;98435.47;5187050;28;20312;-63
2021/05/20 09:38:05;;;;;;;2.30;2.10;;;14.20;99.90;;;15.53;59.20;98439.84;5186573;28;20205;-64
2021/05/20 09:40:40;;;;;;;2.75;1.85;;;14.00;99.90;;;15.33;59.22;98447.53;5186547;28;20202;-64
2021/05/20 09:43:15;;;;;;;2.30;2.03;;;13.90;99.90;;;15.31;59.98;98449.16;5185870;28;20234;-63
2021/05/20 09:45:53;;;;;;;2.20;2.10;;;13.90;99.90;;;15.38;62.59;98445.19;5186387;28;20621;-63
2021/05/20 09:48:33;;;;;;;2.00;1.90;;;13.80;99.90;;;15.31;62.33;98456.88;5187149;28;20641;-64
2021/05/20 09:51:08;;;;;;;1.90;1.80;;;14.00;99.90;;;15.41;61.62;98452.16;5186169;28;20199;-63
2021/05/20 09:53:46;;;;;;;1.77;1.67;;;14.20;99.90;;;15.39;62.26;98451.19;5181738;28;20300;-63
2021/05/20 09:56:33;;;;;;;2.22;1.92;;;14.10;99.90;;;15.48;60.43;98441.31;5185301;28;20215;-63
2021/05/20 09:59:06;;;;;;;1.90;1.80;;;14.20;99.90;;;15.72;60.43;98441.63;5185616;28;20623;-63
2021/05/20 10:01:40;;;;;;;2.00;1.90;;;14.60;99.90;;;15.82;60.46;98448.09;5184793;28;20221;-64
2021/05/20 10:04:29;;;;;;;2.28;1.83;;;14.70;99.90;;;15.88;59.98;98441.53;5184337;28;20249;-62
2021/05/20 10:07:03;;;;;;;1.88;1.80;;;14.80;99.90;;;15.86;60.43;98437.13;5186121;28;20191;-63
2021/05/20 10:09:36;;;;;;;1.92;1.83;;;14.70;99.90;;;15.65;60.57;98439.53;5186345;28;20300;-63
2021/05/20 10:12:10;;;;;;;1.80;1.70;;;14.40;99.90;;;15.49;61.01;98446.56;5184953;28;20289;-63
2021/05/20 10:14:43;;;;;;;2.33;2.13;;;14.30;99.90;;;15.43;61.09;98440.25;5183422;28;20754;-63
2021/05/20 10:17:18;;;;;;;2.30;1.92;;;14.40;99.90;;;15.24;62.17;98444.50;5185719;28;20256;-63
2021/05/20 10:19:51;;;;;;;1.98;1.75;;;14.10;99.90;;;15.19;61.48;98438.25;5185453;28;20280;-64
2021/05/20 10:22:25;;;;;;;1.63;1.52;;;14.10;99.90;;;15.12;61.59;98441.34;5186031;28;20199;-64
2021/05/20 10:24:59;;;;;;;1.60;1.60;;;13.90;99.90;;;15.26;60.72;98436.88;5183636;28;20238;-64
2021/05/20 10:27:32;;;;;;;2.00;1.90;;;13.90;99.90;;;15.06;61.04;98433.34;5183589;28;20285;-63
2021/05/20 10:30:09;;;;;;;2.13;2.00;;;13.90;99.90;;;14.92;62.74;98435.22;5182919;28;20206;-63
2021/05/20 10:32:43;;;;;;;1.95;1.85;;;13.90;99.90;;;14.94;63.14;98435.31;5184486;28;20309;-63
2021/05/20 10:35:17;;;;;;;2.20;2.10;;;13.90;99.90;;;15.11;62.39;98431.88;5183975;28;20230;-62
2021/05/20 10:37:58;;;;;;;2.42;2.08;;;14.00;99.90;;;15.17;62.29;98432.16;5184561;28;20737;-63
2021/05/20 10:40:33;;;;;;;1.98;1.88;;;14.30;99.90;;;15.36;59.95;98425.31;5181079;28;20222;-62
2021/05/20 10:43:14;;;;;;;2.30;2.03;;;14.50;99.90;;;15.33;59.64;98426.91;5183802;28;20632;-63
2021/05/20 10:46:01;;;;;;;2.45;2.33;;;14.70;99.90;;;15.46;60.36;98427.50;5183495;28;20277;-62
2021/05/20 10:48:35;;;;;;;2.13;2.03;;;14.60;99.90;;;15.73;59.96;98418.50;5185456;28;20235;-62
2021/05/20 10:51:20;;;;;;;2.25;2.08;;;14.90;99.90;;;16.01;58.45;98417.19;5185048;28;20191;-63
2021/05/20 10:54:14;;;;;;;1.70;1.60;;;15.20;99.90;;;16.21;56.08;98423.22;5183466;28;21460;-62
2021/05/20 10:56:50;;;;;;;1.75;1.65;;;15.40;99.90;;;16.17;55.11;98422.22;5183450;28;20581;-63